createdAt,value
2023-11-01T00:00:31.247Z,1.00
2023-11-01T00:01:31.307Z,0.50
2023-11-01T00:02:31.256Z,1.10
2023-11-01T00:03:31.251Z,0.70
2023-11-01T00:04:31.253Z,0.80
2023-11-01T00:05:31.236Z,0.80
2023-11-01T00:06:31.214Z,0.70
2023-11-01T00:07:31.198Z,0.80
2023-11-01T00:08:31.269Z,0.70
2023-11-01T00:09:31.183Z,0.80
2023-11-01T00:10:31.235Z,0.70
2023-11-01T00:11:31.227Z,0.80
2023-11-01T00:12:31.169Z,0.70
2023-11-01T00:13:31.171Z,0.90
2023-11-01T00:14:31.158Z,0.70
2023-11-01T00:15:31.162Z,1.20
2023-11-01T00:16:31.241Z,1.10
2023-11-01T00:17:31.204Z,0.80
2023-11-01T00:18:31.178Z,0.60
2023-11-01T00:19:31.142Z,0.60
2023-11-01T00:20:31.192Z,1.00
2023-11-01T00:21:31.131Z,0.60
2023-11-01T00:22:31.101Z,0.70
2023-11-01T00:23:31.115Z,0.80
2023-11-01T00:24:31.104Z,0.90
2023-11-01T00:25:31.113Z,0.90
2023-11-01T00:26:31.160Z,0.90
2023-11-01T00:27:31.070Z,0.90
2023-11-01T00:28:31.100Z,0.70
2023-11-01T00:29:31.123Z,0.70
2023-11-01T00:30:31.067Z,0.80
2023-11-01T00:31:31.091Z,0.60
2023-11-01T00:33:05.423Z,0.90
2023-11-01T00:33:31.122Z,0.80
2023-11-01T00:34:31.055Z,0.80
2023-11-01T00:35:31.062Z,0.50
2023-11-01T00:36:31.049Z,1.10
2023-11-01T00:37:31.029Z,0.60
2023-11-01T00:38:31.041Z,0.40
2023-11-01T00:39:31.069Z,0.60
2023-11-01T00:40:31.048Z,0.60
2023-11-01T00:41:31.088Z,0.80
2023-11-01T00:42:31.006Z,0.80
2023-11-01T00:43:31.003Z,0.60
2023-11-01T00:44:30.992Z,0.60
2023-11-01T00:45:30.985Z,0.50
2023-11-01T00:46:31.024Z,0.80
2023-11-01T00:47:31.045Z,0.70
2023-11-01T00:48:30.961Z,0.70
2023-11-01T00:49:30.991Z,1.00
2023-11-01T00:50:30.998Z,0.70
2023-11-01T00:51:30.953Z,0.60
2023-11-01T00:52:30.979Z,0.90
2023-11-01T00:53:31.013Z,0.50
2023-11-01T00:54:30.973Z,0.60
2023-11-01T00:55:30.987Z,0.90
2023-11-01T00:56:30.992Z,0.80
2023-11-01T00:57:30.932Z,0.70
2023-11-01T00:58:30.942Z,0.50
2023-11-01T00:59:31.024Z,0.50
2023-11-01T01:00:30.934Z,0.70
2023-11-01T01:01:30.961Z,0.90
2023-11-01T01:02:30.992Z,1.30
2023-11-01T01:03:31.014Z,0.50
2023-11-01T01:04:30.940Z,0.50
2023-11-01T01:05:30.973Z,0.90
2023-11-01T01:06:30.954Z,0.60
2023-11-01T01:07:30.879Z,0.60
2023-11-01T01:08:31.040Z,0.90
2023-11-01T01:09:30.894Z,0.50
2023-11-01T01:10:30.901Z,0.50
2023-11-01T01:11:30.899Z,0.80
2023-11-01T01:12:30.874Z,0.80
2023-11-01T01:13:30.854Z,0.80
2023-11-01T01:14:30.879Z,0.90
2023-11-01T01:15:30.846Z,0.50
2023-11-01T01:16:31.866Z,0.60
2023-11-01T01:17:30.928Z,0.40
2023-11-01T01:18:30.841Z,0.80
2023-11-01T01:19:30.826Z,0.50
2023-11-01T01:20:30.888Z,0.50
2023-11-01T01:21:30.844Z,0.90
2023-11-01T01:22:30.846Z,0.60
2023-11-01T01:23:30.855Z,0.70
2023-11-01T01:24:30.855Z,1.00
2023-11-01T01:25:30.831Z,0.80
2023-11-01T01:26:30.924Z,0.70
2023-11-01T01:27:30.800Z,0.50
2023-11-01T01:28:31.785Z,0.70
2023-11-01T01:29:30.845Z,0.80
2023-11-01T01:30:30.764Z,0.70
2023-11-01T01:31:30.807Z,0.60
2023-11-01T01:32:30.809Z,0.90
2023-11-01T01:33:30.760Z,0.40
2023-11-01T01:34:30.740Z,0.80
2023-11-01T01:35:30.753Z,0.90
2023-11-01T01:36:30.776Z,0.90
2023-11-01T01:37:30.750Z,0.70
2023-11-01T01:38:30.782Z,0.50
2023-11-01T01:39:30.746Z,0.30
2023-11-01T01:40:30.716Z,0.50
2023-11-01T01:41:30.736Z,0.50
2023-11-01T01:42:30.719Z,0.70
2023-11-01T01:43:30.760Z,0.80
2023-11-01T01:44:30.687Z,0.60
2023-11-01T01:45:30.705Z,0.80
2023-11-01T01:46:30.708Z,0.70
2023-11-01T01:47:30.760Z,0.60
2023-11-01T01:48:30.688Z,0.70
2023-11-01T01:49:36.943Z,0.80
2023-11-01T01:50:32.706Z,0.40
2023-11-01T01:51:30.689Z,0.40
2023-11-01T01:52:30.691Z,0.70
2023-11-01T01:53:30.724Z,0.80
2023-11-01T01:54:30.677Z,0.70
2023-11-01T01:55:30.667Z,0.50
2023-11-01T01:56:30.662Z,0.90
2023-11-01T01:57:30.632Z,0.80
2023-11-01T01:58:30.651Z,0.60
2023-11-01T01:59:30.641Z,0.80
2023-11-01T02:00:30.642Z,0.50
2023-11-01T02:01:38.831Z,0.80
2023-11-01T02:02:31.738Z,0.70
2023-11-01T02:03:30.696Z,0.90
2023-11-01T02:04:30.646Z,1.10
2023-11-01T02:05:30.637Z,0.50
2023-11-01T02:06:30.622Z,0.70
2023-11-01T02:07:30.612Z,0.60
2023-11-01T02:08:30.608Z,0.40
2023-11-01T02:09:30.573Z,0.70
2023-11-01T02:10:30.571Z,0.80
2023-11-01T02:11:30.604Z,1.30
2023-11-01T02:12:30.560Z,0.60
2023-11-01T02:13:30.548Z,0.80
2023-11-01T02:14:30.588Z,0.50
2023-11-01T02:15:30.544Z,0.50
2023-11-01T02:16:30.549Z,0.60
2023-11-01T02:17:30.738Z,0.70
2023-11-01T02:18:30.565Z,0.80
2023-11-01T02:19:30.548Z,1.00
2023-11-01T02:20:30.525Z,1.20
2023-11-01T02:21:30.518Z,0.60
2023-11-01T02:22:30.566Z,0.70
2023-11-01T02:23:30.547Z,0.60
2023-11-01T02:24:30.501Z,0.60
2023-11-01T02:25:30.504Z,0.90
2023-11-01T02:26:30.522Z,0.90
2023-11-01T02:27:30.472Z,0.80
2023-11-01T02:28:30.491Z,0.60
2023-11-01T02:29:30.548Z,0.90
2023-11-01T02:30:30.479Z,0.80
2023-11-01T02:31:30.495Z,0.90
2023-11-01T02:32:30.538Z,1.30
2023-11-01T02:33:30.493Z,0.80
2023-11-01T02:34:30.445Z,0.60
2023-11-01T02:35:30.505Z,0.90
2023-11-01T02:36:30.449Z,0.70
2023-11-01T02:37:30.446Z,0.70
2023-11-01T02:38:31.511Z,1.00
2023-11-01T02:39:30.408Z,1.20
2023-11-01T02:40:30.428Z,1.00
2023-11-01T02:41:30.470Z,0.60
2023-11-01T02:42:30.387Z,0.80
2023-11-01T02:43:30.438Z,0.90
2023-11-01T02:44:30.417Z,0.90
2023-11-01T02:45:30.390Z,0.80
2023-11-01T02:46:31.400Z,0.60
2023-11-01T02:47:30.468Z,1.00
2023-11-01T02:48:30.378Z,0.80
2023-11-01T02:49:30.341Z,0.70
2023-11-01T02:50:30.449Z,0.90
2023-11-01T02:51:30.355Z,1.00
2023-11-01T02:52:30.334Z,0.50
2023-11-01T02:53:30.449Z,0.80
2023-11-01T02:54:30.344Z,0.90
2023-11-01T02:55:31.345Z,0.90
2023-11-01T02:56:30.399Z,0.80
2023-11-01T02:57:30.323Z,0.80
2023-11-01T02:58:30.388Z,1.10
2023-11-01T02:59:30.366Z,1.20
2023-11-01T03:00:30.324Z,0.70
2023-11-01T03:01:30.368Z,1.30
2023-11-01T03:02:30.401Z,1.10
2023-11-01T03:03:30.447Z,0.90
2023-11-01T03:04:30.449Z,1.00
2023-11-01T03:05:30.321Z,1.20
2023-11-01T03:06:30.311Z,0.90
2023-11-01T03:07:30.322Z,1.00
2023-11-01T03:08:30.426Z,0.90
2023-11-01T03:09:30.299Z,0.90
2023-11-01T03:10:30.398Z,0.80
2023-11-01T03:11:30.323Z,1.00
2023-11-01T03:12:30.344Z,0.80
2023-11-01T03:13:30.350Z,0.90
2023-11-01T03:14:30.327Z,1.20
2023-11-01T03:15:30.346Z,0.70
2023-11-01T03:16:30.243Z,0.80
2023-11-01T03:17:30.282Z,0.90
2023-11-01T03:18:30.238Z,1.20
2023-11-01T03:19:30.220Z,1.20
2023-11-01T03:20:30.317Z,0.80
2023-11-01T03:21:30.192Z,1.00
2023-11-01T03:22:30.224Z,1.20
2023-11-01T03:23:30.228Z,0.90
2023-11-01T03:24:30.233Z,0.80
2023-11-01T03:25:30.184Z,0.80
2023-11-01T03:26:30.318Z,0.90
2023-11-01T03:27:30.226Z,1.00
2023-11-01T03:28:30.187Z,1.30
2023-11-01T03:29:30.227Z,1.30
2023-11-01T03:30:30.232Z,1.50
2023-11-01T03:31:30.220Z,1.50
2023-11-01T03:32:30.213Z,1.30
2023-11-01T03:33:30.167Z,1.30
2023-11-01T03:34:30.137Z,1.10
2023-11-01T03:35:30.183Z,1.20
2023-11-01T03:36:30.148Z,1.40
2023-11-01T03:37:30.183Z,0.80
2023-11-01T03:38:30.141Z,0.90
2023-11-01T03:39:30.103Z,1.10
2023-11-01T03:40:30.135Z,1.20
2023-11-01T03:41:30.116Z,1.10
2023-11-01T03:42:30.149Z,1.30
2023-11-01T03:43:30.101Z,0.90
2023-11-01T03:44:30.132Z,1.10
2023-11-01T03:45:30.086Z,1.30
2023-11-01T03:46:30.099Z,1.00
2023-11-01T03:47:31.218Z,1.10
2023-11-01T03:48:30.155Z,1.20
2023-11-01T03:49:30.086Z,1.00
2023-11-01T03:50:30.102Z,0.70
2023-11-01T03:51:30.058Z,1.20
2023-11-01T03:52:30.067Z,1.40
2023-11-01T03:53:30.108Z,0.70
2023-11-01T03:54:30.040Z,1.10
2023-11-01T03:55:30.029Z,1.10
2023-11-01T03:56:30.105Z,0.90
2023-11-01T03:57:30.023Z,1.00
2023-11-01T03:58:30.051Z,1.00
2023-11-01T03:59:30.122Z,1.10
2023-11-01T04:00:29.980Z,0.90
2023-11-01T04:01:30.093Z,0.80
2023-11-01T04:02:30.087Z,0.80
2023-11-01T04:03:30.098Z,1.00
2023-11-01T04:04:30.044Z,0.90
2023-11-01T04:05:30.116Z,1.40
2023-11-01T04:06:30.044Z,1.00
2023-11-01T04:07:29.995Z,1.10
2023-11-01T04:08:29.975Z,1.00
2023-11-01T04:09:30.034Z,1.10
2023-11-01T04:10:29.975Z,1.50
2023-11-01T04:11:29.957Z,1.20
2023-11-01T04:12:29.972Z,1.10
2023-11-01T04:13:29.965Z,1.40
2023-11-01T04:14:30.038Z,1.50
2023-11-01T04:15:29.975Z,1.00
2023-11-01T04:16:29.924Z,1.10
2023-11-01T04:17:29.973Z,1.30
2023-11-01T04:18:29.955Z,1.40
2023-11-01T04:19:29.976Z,1.20
2023-11-01T04:20:29.969Z,1.20
2023-11-01T04:21:29.925Z,0.90
2023-11-01T04:22:29.909Z,1.10
2023-11-01T04:23:29.963Z,1.20
2023-11-01T04:24:29.931Z,1.50
2023-11-01T04:25:29.909Z,1.10
2023-11-01T04:26:29.906Z,1.20
2023-11-01T04:27:29.880Z,1.30
2023-11-01T04:28:29.891Z,0.90
2023-11-01T04:29:29.890Z,1.30
2023-11-01T04:30:29.848Z,1.10
2023-11-01T04:31:29.882Z,1.10
2023-11-01T04:32:29.981Z,1.30
2023-11-01T04:33:29.863Z,1.10
2023-11-01T04:34:29.877Z,1.30
2023-11-01T04:35:29.923Z,1.10
2023-11-01T04:36:29.848Z,1.30
2023-11-01T04:37:29.797Z,1.20
2023-11-01T04:38:29.883Z,1.10
2023-11-01T04:39:29.867Z,1.30
2023-11-01T04:40:29.869Z,1.00
2023-11-01T04:41:29.915Z,1.00
2023-11-01T04:42:29.808Z,1.20
2023-11-01T04:43:29.841Z,1.00
2023-11-01T04:44:29.814Z,1.20
2023-11-01T04:45:29.757Z,1.30
2023-11-01T04:46:29.824Z,1.10
2023-11-01T04:47:29.889Z,1.40
2023-11-01T04:48:29.782Z,0.90
2023-11-01T04:49:29.780Z,1.20
2023-11-01T04:50:29.843Z,1.40
2023-11-01T04:51:29.765Z,0.90
2023-11-01T04:52:29.758Z,1.30
2023-11-01T04:53:29.769Z,0.80
2023-11-01T04:54:29.801Z,1.00
2023-11-01T04:55:29.724Z,1.10
2023-11-01T04:56:29.727Z,1.10
2023-11-01T04:57:29.747Z,1.30
2023-11-01T04:58:29.705Z,0.90
2023-11-01T04:59:29.753Z,0.60
2023-11-01T05:00:29.712Z,0.90
2023-11-01T05:01:29.690Z,0.90
2023-11-01T05:02:29.869Z,0.70
2023-11-01T05:03:29.729Z,1.10
2023-11-01T05:04:29.665Z,1.10
2023-11-01T05:05:29.723Z,0.70
2023-11-01T05:06:29.676Z,1.00
2023-11-01T05:07:29.683Z,0.90
2023-11-01T05:08:29.732Z,0.70
2023-11-01T05:09:29.647Z,1.00
2023-11-01T05:10:29.710Z,0.80
2023-11-01T05:11:29.660Z,0.70
2023-11-01T05:12:29.667Z,0.90
2023-11-01T05:13:29.650Z,0.60
2023-11-01T05:14:29.688Z,0.60
2023-11-01T05:15:29.634Z,0.60
2023-11-01T05:16:29.721Z,1.10
2023-11-01T05:17:29.655Z,1.00
2023-11-01T05:18:29.788Z,0.80
2023-11-01T05:19:29.641Z,0.70
2023-11-01T05:20:29.628Z,0.80
2023-11-01T05:21:29.637Z,0.60
2023-11-01T05:22:29.584Z,0.70
2023-11-01T05:23:29.605Z,0.90
2023-11-01T05:24:29.653Z,0.60
2023-11-01T05:25:30.805Z,1.10
2023-11-01T05:26:30.685Z,0.60
2023-11-01T05:27:29.612Z,0.70
2023-11-01T05:28:29.567Z,0.90
2023-11-01T05:29:29.573Z,0.60
2023-11-01T05:30:29.568Z,0.90
2023-11-01T05:31:29.606Z,0.50
2023-11-01T05:32:29.601Z,0.70
2023-11-01T05:33:29.623Z,0.80
2023-11-01T05:34:29.574Z,0.80
2023-11-01T05:35:29.550Z,0.70
2023-11-01T05:36:29.531Z,0.80
2023-11-01T05:37:29.496Z,0.50
2023-11-01T05:38:29.540Z,0.70
2023-11-01T05:39:29.506Z,0.70
2023-11-01T05:40:29.506Z,0.70
2023-11-01T05:41:29.556Z,1.00
2023-11-01T05:42:29.473Z,0.90
2023-11-01T05:43:29.526Z,0.80
2023-11-01T05:44:29.484Z,1.00
2023-11-01T05:45:29.509Z,0.60
2023-11-01T05:46:29.533Z,0.80
2023-11-01T05:47:29.498Z,0.70
2023-11-01T05:48:29.481Z,0.50
2023-11-01T05:49:29.456Z,0.40
2023-11-01T05:50:29.494Z,1.00
2023-11-01T05:51:29.439Z,0.80
2023-11-01T05:52:29.417Z,0.70
2023-11-01T05:53:29.481Z,0.50
2023-11-01T05:54:29.429Z,0.40
2023-11-01T05:55:38.079Z,0.70
2023-11-01T05:56:29.458Z,0.70
2023-11-01T05:57:29.430Z,0.90
2023-11-01T05:58:29.465Z,0.70
2023-11-01T05:59:29.410Z,0.60
2023-11-01T06:00:29.452Z,1.00
2023-11-01T06:01:29.470Z,0.50
2023-11-01T06:02:29.488Z,1.10
2023-11-01T06:03:29.473Z,0.50
2023-11-01T06:04:29.361Z,0.90
2023-11-01T06:05:29.497Z,0.40
2023-11-01T06:06:29.347Z,0.40
2023-11-01T06:07:29.367Z,0.80
2023-11-01T06:08:29.362Z,0.80
2023-11-01T06:09:30.705Z,0.80
2023-11-01T06:10:29.348Z,0.60
2023-11-01T06:11:29.357Z,0.50
2023-11-01T06:12:29.347Z,0.70
2023-11-01T06:13:29.336Z,0.70
2023-11-01T06:14:29.360Z,0.70
2023-11-01T06:15:29.370Z,0.80
2023-11-01T06:16:29.360Z,0.60
2023-11-01T06:17:29.373Z,0.60
2023-11-01T06:18:29.347Z,0.70
2023-11-01T06:19:29.265Z,0.90
2023-11-01T06:20:29.351Z,0.50
2023-11-01T06:21:29.380Z,0.60
2023-11-01T06:22:29.281Z,0.40
2023-11-01T06:23:29.313Z,0.50
2023-11-01T06:24:29.266Z,0.60
2023-11-01T06:25:30.244Z,0.70
2023-11-01T06:26:29.341Z,0.60
2023-11-01T06:27:29.256Z,0.30
2023-11-01T06:28:29.242Z,0.60
2023-11-01T06:29:29.298Z,0.70
2023-11-01T06:30:29.258Z,0.40
2023-11-01T06:31:29.259Z,0.60
2023-11-01T06:32:29.312Z,0.60
2023-11-01T06:33:29.321Z,0.60
2023-11-01T06:34:29.192Z,0.70
2023-11-01T06:35:29.216Z,0.80
2023-11-01T06:36:29.275Z,0.40
2023-11-01T06:37:29.219Z,0.40
2023-11-01T06:38:29.210Z,0.50
2023-11-01T06:39:29.182Z,0.50
2023-11-01T06:40:29.189Z,0.40
2023-11-01T06:41:29.223Z,0.60
2023-11-01T06:42:29.154Z,0.90
2023-11-01T06:43:29.178Z,0.90
2023-11-01T06:44:29.145Z,1.00
2023-11-01T06:45:29.154Z,1.00
2023-11-01T06:46:29.168Z,0.90
2023-11-01T06:47:29.192Z,1.20
2023-11-01T06:48:29.165Z,1.40
2023-11-01T06:49:31.721Z,8.10
2023-11-01T06:50:29.168Z,6.60
2023-11-01T06:51:29.151Z,5.40
2023-11-01T06:52:29.090Z,2.30
2023-11-01T06:53:29.136Z,2.10
2023-11-01T06:54:29.106Z,1.10
2023-11-01T06:55:29.105Z,0.90
2023-11-01T06:56:29.112Z,0.90
2023-11-01T06:57:29.154Z,0.40
2023-11-01T06:58:29.081Z,0.70
2023-11-01T06:59:29.133Z,0.80
2023-11-01T07:00:29.146Z,1.00
2023-11-01T07:01:29.183Z,0.80
2023-11-01T07:02:29.136Z,0.70
2023-11-01T07:03:29.196Z,0.60
2023-11-01T07:04:29.125Z,0.60
2023-11-01T07:05:29.113Z,0.70
2023-11-01T07:06:29.081Z,0.70
2023-11-01T07:07:29.049Z,0.60
2023-11-01T07:08:29.081Z,0.70
2023-11-01T07:09:29.025Z,0.50
2023-11-01T07:10:29.072Z,0.80
2023-11-01T07:11:29.154Z,0.60
2023-11-01T07:12:29.047Z,1.80
2023-11-01T07:13:29.156Z,1.50
2023-11-01T07:14:30.020Z,2.10
2023-11-01T07:15:29.089Z,2.10
2023-11-01T07:16:29.032Z,2.20
2023-11-01T07:17:29.176Z,1.50
2023-11-01T07:18:29.044Z,1.70
2023-11-01T07:19:28.968Z,0.90
2023-11-01T07:20:29.016Z,0.70
2023-11-01T07:21:28.981Z,0.90
2023-11-01T07:22:28.978Z,0.90
2023-11-01T07:23:28.993Z,0.60
2023-11-01T07:24:28.944Z,0.40
2023-11-01T07:25:28.933Z,0.70
2023-11-01T07:26:29.040Z,0.50
2023-11-01T07:27:28.954Z,0.50
2023-11-01T07:28:28.944Z,0.90
2023-11-01T07:29:28.921Z,0.60
2023-11-01T07:30:28.964Z,0.70
2023-11-01T07:31:28.961Z,0.70
2023-11-01T07:32:29.029Z,0.70
2023-11-01T07:33:28.991Z,0.60
2023-11-01T07:34:28.931Z,0.80
2023-11-01T07:35:28.921Z,0.70
2023-11-01T07:36:28.897Z,0.50
2023-11-01T07:37:28.915Z,1.10
2023-11-01T07:38:28.901Z,0.70
2023-11-01T07:39:28.880Z,1.00
2023-11-01T07:40:28.872Z,0.60
2023-11-01T07:41:28.887Z,1.00
2023-11-01T07:42:28.874Z,0.70
2023-11-01T07:43:28.852Z,1.10
2023-11-01T07:44:28.856Z,0.70
2023-11-01T07:45:28.859Z,0.70
2023-11-01T07:46:28.859Z,0.80
2023-11-01T07:47:28.891Z,1.10
2023-11-01T07:48:28.908Z,0.90
2023-11-01T07:49:28.823Z,1.00
2023-11-01T07:50:28.876Z,0.70
2023-11-01T07:51:28.793Z,0.80
2023-11-01T07:52:28.850Z,0.90
2023-11-01T07:53:28.833Z,0.60
2023-11-01T07:54:28.809Z,0.90
2023-11-01T07:55:28.789Z,1.20
2023-11-01T07:56:28.801Z,0.80
2023-11-01T07:57:28.788Z,0.90
2023-11-01T07:58:28.762Z,1.00
2023-11-01T07:59:28.814Z,0.90
2023-11-01T08:00:28.747Z,1.10
2023-11-01T08:01:28.810Z,1.30
2023-11-01T08:02:28.871Z,0.90
2023-11-01T08:03:28.969Z,0.90
2023-11-01T08:04:28.864Z,1.00
2023-11-01T08:05:28.747Z,1.00
2023-11-01T08:06:28.736Z,1.10
2023-11-01T08:07:28.728Z,0.80
2023-11-01T08:08:28.732Z,1.10
2023-11-01T08:09:28.719Z,0.80
2023-11-01T08:10:28.734Z,1.10
2023-11-01T08:11:28.707Z,1.40
2023-11-01T08:12:28.717Z,0.90
2023-11-01T08:13:28.685Z,0.70
2023-11-01T08:14:28.735Z,1.10
2023-11-01T08:15:28.696Z,1.20
2023-11-01T08:16:28.884Z,1.10
2023-11-01T08:17:28.754Z,0.70
2023-11-01T08:18:28.679Z,1.40
2023-11-01T08:19:28.683Z,1.00
2023-11-01T08:20:28.664Z,1.10
2023-11-01T08:21:28.666Z,1.00
2023-11-01T08:22:28.667Z,0.90
2023-11-01T08:23:28.689Z,1.20
2023-11-01T08:24:28.666Z,1.70
2023-11-01T08:25:28.665Z,1.50
2023-11-01T08:26:28.666Z,1.20
2023-11-01T08:27:28.762Z,1.10
2023-11-01T08:28:28.606Z,1.20
2023-11-01T08:29:28.635Z,1.10
2023-11-01T08:30:28.631Z,1.20
2023-11-01T08:31:28.645Z,1.80
2023-11-01T08:32:28.674Z,1.00
2023-11-01T08:33:28.703Z,1.10
2023-11-01T08:34:28.701Z,1.10
2023-11-01T08:35:28.634Z,1.00
2023-11-01T08:36:28.609Z,1.40
2023-11-01T08:37:28.603Z,1.40
2023-11-01T08:38:28.675Z,1.20
2023-11-01T08:39:28.593Z,1.20
2023-11-01T08:40:28.593Z,1.10
2023-11-01T08:41:28.582Z,1.10
2023-11-01T08:42:28.552Z,1.40
2023-11-01T08:43:28.581Z,1.20
2023-11-01T08:44:28.572Z,1.40
2023-11-01T08:45:28.560Z,0.90
2023-11-01T08:46:28.555Z,1.00
2023-11-01T08:47:28.639Z,1.10
2023-11-01T08:48:28.650Z,1.20
2023-11-01T08:49:28.551Z,1.20
2023-11-01T08:50:28.534Z,1.30
2023-11-01T08:51:28.533Z,0.90
2023-11-01T08:52:28.508Z,1.10
2023-11-01T08:53:30.747Z,1.30
2023-11-01T08:54:28.488Z,1.10
2023-11-01T08:55:28.554Z,1.00
2023-11-01T08:56:28.539Z,1.00
2023-11-01T08:57:28.508Z,1.30
2023-11-01T08:58:28.495Z,1.10
2023-11-01T08:59:28.549Z,1.00
2023-11-01T09:00:39.206Z,1.10
2023-11-01T09:01:30.472Z,1.20
2023-11-01T09:02:28.596Z,0.90
2023-11-01T09:03:28.563Z,0.90
2023-11-01T09:04:28.546Z,0.80
2023-11-01T09:05:28.711Z,1.00
2023-11-01T09:06:28.465Z,0.90
2023-11-01T09:07:28.440Z,1.30
2023-11-01T09:08:28.470Z,1.60
2023-11-01T09:09:28.423Z,1.70
2023-11-01T09:10:28.513Z,2.20
2023-11-01T09:11:28.441Z,1.20
2023-11-01T09:12:28.451Z,1.40
2023-11-01T09:13:28.417Z,1.20
2023-11-01T09:14:28.465Z,0.90
2023-11-01T09:15:28.458Z,1.10
2023-11-01T09:16:28.475Z,1.00
2023-11-01T09:17:28.500Z,0.90
2023-11-01T09:18:28.546Z,1.50
2023-11-01T09:19:28.407Z,1.20
2023-11-01T09:20:28.398Z,0.70
2023-11-01T09:21:28.365Z,0.80
2023-11-01T09:22:28.355Z,1.10
2023-11-01T09:23:28.427Z,0.80
2023-11-01T09:24:29.394Z,1.40
2023-11-01T09:25:28.387Z,1.00
2023-11-01T09:26:28.397Z,0.90
2023-11-01T09:27:28.374Z,1.20
2023-11-01T09:28:28.372Z,1.10
2023-11-01T09:29:28.378Z,1.20
2023-11-01T09:30:28.324Z,1.40
2023-11-01T09:31:28.365Z,1.00
2023-11-01T09:32:28.361Z,1.20
2023-11-01T09:33:28.429Z,1.20
2023-11-01T09:34:28.352Z,0.90
2023-11-01T09:35:28.455Z,1.00
2023-11-01T09:36:28.312Z,1.00
2023-11-01T09:37:28.290Z,1.00
2023-11-01T09:38:28.323Z,0.80
2023-11-01T09:39:28.317Z,0.90
2023-11-01T09:40:28.324Z,0.90
2023-11-01T09:41:28.371Z,1.00
2023-11-01T09:42:28.280Z,1.00
2023-11-01T09:43:28.281Z,1.40
2023-11-01T09:44:28.383Z,0.60
2023-11-01T09:45:28.280Z,0.90
2023-11-01T09:46:28.322Z,0.90
2023-11-01T09:47:28.668Z,1.00
2023-11-01T09:48:28.319Z,1.20
2023-11-01T09:49:28.268Z,1.00
2023-11-01T09:50:28.308Z,0.90
2023-11-01T09:51:28.235Z,1.10
2023-11-01T09:52:28.252Z,1.50
2023-11-01T09:53:28.292Z,0.90
2023-11-01T09:54:28.245Z,1.00
2023-11-01T09:55:28.222Z,1.00
2023-11-01T09:56:28.254Z,1.00
2023-11-01T09:57:28.227Z,1.00
2023-11-01T09:58:28.240Z,0.70
2023-11-01T09:59:28.229Z,1.10
2023-11-01T10:00:28.200Z,0.90
2023-11-01T10:01:28.194Z,1.00
2023-11-01T10:02:28.260Z,0.90
2023-11-01T10:03:28.285Z,1.40
2023-11-01T10:04:28.206Z,1.10
2023-11-01T10:05:28.223Z,1.10
2023-11-01T10:06:28.192Z,1.20
2023-11-01T10:07:28.174Z,0.90
2023-11-01T10:08:28.179Z,0.90
2023-11-01T10:09:28.165Z,1.30
2023-11-01T10:10:28.183Z,1.40
2023-11-01T10:11:30.891Z,1.20
2023-11-01T10:12:28.144Z,1.10
2023-11-01T10:13:28.140Z,1.20
2023-11-01T10:14:28.213Z,1.10
2023-11-01T10:15:28.161Z,1.20
2023-11-01T10:16:28.114Z,1.00
2023-11-01T10:17:28.157Z,1.20
2023-11-01T10:18:28.213Z,0.90
2023-11-01T10:19:28.110Z,0.70
2023-11-01T10:20:28.115Z,1.10
2023-11-01T10:21:28.219Z,1.20
2023-11-01T10:22:28.118Z,1.00
2023-11-01T10:23:28.139Z,1.20
2023-11-01T10:24:28.131Z,0.80
2023-11-01T10:25:28.137Z,1.20
2023-11-01T10:26:28.108Z,0.90
2023-11-01T10:27:28.097Z,1.10
2023-11-01T10:28:28.089Z,1.20
2023-11-01T10:29:28.142Z,1.20
2023-11-01T10:30:28.104Z,1.00
2023-11-01T10:31:28.066Z,1.20
2023-11-01T10:32:28.172Z,1.00
2023-11-01T10:33:28.161Z,0.80
2023-11-01T10:34:28.063Z,0.90
2023-11-01T10:35:28.436Z,1.20
2023-11-01T10:36:28.049Z,1.20
2023-11-01T10:37:28.039Z,1.10
2023-11-01T10:38:28.103Z,0.90
2023-11-01T10:39:28.028Z,1.00
2023-11-01T10:40:28.037Z,1.30
2023-11-01T10:41:28.041Z,0.60
2023-11-01T10:42:28.009Z,0.80
2023-11-01T10:43:27.997Z,1.50
2023-11-01T10:44:28.008Z,1.20
2023-11-01T10:45:28.011Z,0.90
2023-11-01T10:46:27.993Z,0.90
2023-11-01T10:47:27.995Z,0.90
2023-11-01T10:48:28.006Z,1.00
2023-11-01T10:49:27.963Z,1.40
2023-11-01T10:50:28.007Z,0.90
2023-11-01T10:51:27.955Z,1.00
2023-11-01T10:52:27.977Z,0.90
2023-11-01T10:53:28.046Z,1.00
2023-11-01T10:54:28.094Z,1.00
2023-11-01T10:55:28.065Z,0.90
2023-11-01T10:56:27.979Z,1.10
2023-11-01T10:57:27.929Z,0.90
2023-11-01T10:58:27.918Z,1.00
2023-11-01T10:59:27.932Z,1.30
2023-11-01T11:00:28.023Z,1.20
2023-11-01T11:01:27.898Z,1.10
2023-11-01T11:02:27.949Z,1.00
2023-11-01T11:03:28.119Z,1.30
2023-11-01T11:04:28.054Z,0.80
2023-11-01T11:05:27.907Z,0.90
2023-11-01T11:06:27.868Z,0.70
2023-11-01T11:07:27.871Z,0.70
2023-11-01T11:08:27.892Z,0.90
2023-11-01T11:09:27.863Z,1.20
2023-11-01T11:10:27.892Z,1.50
2023-11-01T11:11:27.875Z,1.00
2023-11-01T11:12:27.823Z,0.90
2023-11-01T11:13:27.837Z,1.30
2023-11-01T11:14:27.834Z,1.00
2023-11-01T11:15:27.830Z,1.50
2023-11-01T11:16:27.865Z,1.00
2023-11-01T11:17:27.841Z,0.90
2023-11-01T11:18:27.921Z,1.00
2023-11-01T11:19:27.822Z,1.10
2023-11-01T11:20:27.869Z,0.70
2023-11-01T11:21:27.831Z,0.80
2023-11-01T11:22:27.812Z,1.00
2023-11-01T11:23:27.851Z,0.90
2023-11-01T11:24:27.790Z,1.10
2023-11-01T11:25:27.774Z,1.00
2023-11-01T11:26:27.945Z,1.30
2023-11-01T11:27:27.796Z,1.10
2023-11-01T11:28:27.777Z,0.90
2023-11-01T11:29:27.801Z,1.10
2023-11-01T11:30:27.729Z,0.80
2023-11-01T11:31:27.784Z,0.90
2023-11-01T11:32:27.799Z,1.30
2023-11-01T11:33:27.855Z,1.30
2023-11-01T11:34:27.732Z,0.90
2023-11-01T11:35:27.790Z,0.70
2023-11-01T11:36:27.797Z,0.90
2023-11-01T11:37:27.764Z,1.20
2023-11-01T11:38:27.767Z,1.10
2023-11-01T11:39:27.733Z,1.00
2023-11-01T11:40:27.730Z,1.10
2023-11-01T11:41:27.763Z,1.20
2023-11-01T11:42:27.692Z,1.00
2023-11-01T11:43:27.724Z,0.90
2023-11-01T11:44:27.746Z,1.30
2023-11-01T11:45:27.727Z,1.10
2023-11-01T11:46:27.671Z,1.10
2023-11-01T11:47:27.752Z,1.00
2023-11-01T11:48:27.769Z,1.30
2023-11-01T11:49:27.928Z,0.80
2023-11-01T11:50:27.669Z,1.10
2023-11-01T11:51:27.662Z,1.00
2023-11-01T11:52:27.695Z,1.00
2023-11-01T11:53:27.700Z,0.80
2023-11-01T11:54:27.698Z,1.00
2023-11-01T11:55:27.652Z,0.90
2023-11-01T11:56:27.664Z,0.80
2023-11-01T11:57:27.649Z,1.10
2023-11-01T11:58:27.624Z,1.00
2023-11-01T11:59:27.706Z,1.20
2023-11-01T12:00:27.599Z,1.10
2023-11-01T12:01:27.780Z,0.90
2023-11-01T12:02:27.622Z,1.50
2023-11-01T12:03:27.668Z,1.70
2023-11-01T12:04:27.685Z,1.20
2023-11-01T12:05:27.634Z,1.20
2023-11-01T12:06:27.613Z,0.90
2023-11-01T12:07:27.566Z,0.80
2023-11-01T12:08:27.623Z,0.70
2023-11-01T12:09:27.593Z,0.80
2023-11-01T12:10:27.596Z,0.80
2023-11-01T12:11:27.612Z,1.10
2023-11-01T12:12:27.567Z,0.90
2023-11-01T12:13:27.573Z,1.20
2023-11-01T12:14:27.599Z,1.10
2023-11-01T12:15:27.557Z,1.60
2023-11-01T12:16:27.691Z,1.40
2023-11-01T12:17:27.572Z,1.10
2023-11-01T12:18:27.596Z,0.90
2023-11-01T12:19:27.570Z,0.70
2023-11-01T12:20:27.544Z,0.90
2023-11-01T12:21:27.534Z,1.00
2023-11-01T12:22:27.559Z,1.00
2023-11-01T12:23:27.487Z,1.10
2023-11-01T12:24:27.506Z,0.80
2023-11-01T12:25:27.495Z,0.90
2023-11-01T12:26:27.488Z,1.10
2023-11-01T12:27:27.516Z,0.90
2023-11-01T12:28:27.486Z,0.60
2023-11-01T12:29:27.491Z,0.90
2023-11-01T12:30:27.476Z,1.10
2023-11-01T12:31:27.464Z,0.60
2023-11-01T12:32:27.522Z,0.80
2023-11-01T12:33:27.591Z,1.00
2023-11-01T12:34:27.435Z,1.00
2023-11-01T12:35:27.464Z,0.60
2023-11-01T12:36:27.445Z,0.80
2023-11-01T12:37:27.441Z,1.20
2023-11-01T12:38:27.450Z,1.10
2023-11-01T12:39:27.430Z,1.20
2023-11-01T12:40:27.460Z,0.80
2023-11-01T12:41:27.408Z,0.90
2023-11-01T12:42:27.423Z,0.80
2023-11-01T12:43:27.446Z,1.00
2023-11-01T12:44:27.409Z,1.00
2023-11-01T12:45:27.406Z,0.90
2023-11-01T12:46:27.442Z,0.70
2023-11-01T12:47:27.404Z,0.90
2023-11-01T12:48:27.458Z,1.10
2023-11-01T12:49:27.387Z,1.00
2023-11-01T12:50:27.357Z,0.80
2023-11-01T12:51:27.361Z,1.40
2023-11-01T12:52:27.350Z,1.00
2023-11-01T12:53:27.367Z,1.10
2023-11-01T12:54:27.356Z,1.40
2023-11-01T12:55:27.465Z,1.40
2023-11-01T12:56:27.342Z,1.30
2023-11-01T12:57:27.327Z,1.10
2023-11-01T12:58:27.312Z,1.30
2023-11-01T12:59:27.350Z,1.00
2023-11-01T13:00:27.495Z,0.60
2023-11-01T13:01:27.344Z,1.20
2023-11-01T13:02:27.370Z,1.10
2023-11-01T13:03:27.523Z,0.90
2023-11-01T13:04:27.333Z,1.00
2023-11-01T13:05:27.449Z,0.80
2023-11-01T13:06:27.308Z,0.90
2023-11-01T13:07:27.312Z,1.20
2023-11-01T13:08:27.289Z,0.80
2023-11-01T13:09:27.307Z,0.80
2023-11-01T13:10:27.297Z,0.70
2023-11-01T13:11:27.282Z,0.80
2023-11-01T13:12:27.281Z,0.90
2023-11-01T13:13:27.271Z,1.00
2023-11-01T13:14:27.278Z,1.10
2023-11-01T13:15:27.279Z,1.10
2023-11-01T13:16:27.374Z,1.00
2023-11-01T13:17:27.262Z,0.80
2023-11-01T13:18:27.320Z,0.90